createdAt,value
2023-09-27T00:01:01.389Z,56.82
2023-09-27T00:03:27.929Z,56.89
2023-09-27T00:05:54.599Z,56.78
2023-09-27T00:08:21.193Z,56.63
2023-09-27T00:10:47.705Z,56.84
2023-09-27T00:13:14.210Z,56.93
2023-09-27T00:15:41.277Z,56.41
2023-09-27T00:18:07.985Z,56.53
2023-09-27T00:20:34.490Z,56.82
2023-09-27T00:23:01.623Z,56.67
2023-09-27T00:25:28.077Z,56.88
2023-09-27T00:27:54.515Z,57.16
2023-09-27T00:30:21.003Z,56.88
2023-09-27T00:32:47.531Z,57.26
2023-09-27T00:35:20.786Z,56.80
2023-09-27T00:37:48.251Z,57.73
2023-09-27T00:40:16.197Z,57.30
2023-09-27T00:42:42.804Z,57.17
2023-09-27T00:45:09.549Z,57.88
2023-09-27T00:47:36.723Z,57.73
2023-09-27T00:50:03.635Z,57.31
2023-09-27T00:52:30.593Z,56.92
2023-09-27T00:54:58.154Z,56.89
2023-09-27T00:57:24.799Z,57.10
2023-09-27T00:59:51.452Z,56.99
2023-09-27T01:02:18.049Z,57.02
2023-09-27T01:04:44.907Z,57.04
2023-09-27T01:07:11.429Z,57.34
2023-09-27T01:09:38.811Z,56.74
2023-09-27T01:12:05.775Z,57.11
2023-09-27T01:14:32.346Z,57.71
2023-09-27T01:17:08.634Z,57.50
2023-09-27T01:19:35.688Z,57.87
2023-09-27T01:22:02.243Z,57.23
2023-09-27T01:24:31.266Z,58.00
2023-09-27T01:26:58.720Z,57.80
2023-09-27T01:29:25.201Z,57.44
2023-09-27T01:31:51.759Z,58.17
2023-09-27T01:34:18.307Z,57.55
2023-09-27T01:36:44.740Z,57.11
2023-09-27T01:39:11.223Z,57.52
2023-09-27T01:41:37.667Z,57.58
2023-09-27T01:44:04.164Z,57.95
2023-09-27T01:46:30.711Z,57.30
2023-09-27T01:48:57.209Z,57.36
2023-09-27T01:51:23.663Z,57.15
2023-09-27T01:53:50.125Z,57.07
2023-09-27T01:56:16.675Z,57.25
2023-09-27T01:58:43.213Z,57.21
2023-09-27T02:01:09.742Z,57.50
2023-09-27T02:03:36.358Z,57.13
2023-09-27T02:06:02.916Z,57.34
2023-09-27T02:08:29.486Z,57.07
2023-09-27T02:10:56.003Z,57.28
2023-09-27T02:13:22.463Z,57.30
2023-09-27T02:15:48.993Z,57.08
2023-09-27T02:18:15.467Z,56.86
2023-09-27T02:20:42.527Z,56.97
2023-09-27T02:23:09.026Z,56.76
2023-09-27T02:25:35.565Z,56.91
2023-09-27T02:28:02.131Z,56.75
2023-09-27T02:30:28.590Z,56.89
2023-09-27T02:32:55.126Z,56.47
2023-09-27T02:35:22.306Z,56.88
2023-09-27T02:37:48.932Z,56.84
2023-09-27T02:40:15.717Z,56.87
2023-09-27T02:42:42.755Z,56.87
2023-09-27T02:45:13.012Z,57.25
2023-09-27T02:47:40.627Z,57.32
2023-09-27T02:50:11.176Z,56.66
2023-09-27T02:52:39.582Z,57.11
2023-09-27T02:55:09.936Z,56.85
2023-09-27T02:57:37.198Z,56.74
2023-09-27T03:00:04.637Z,56.72
2023-09-27T03:02:32.688Z,56.63
2023-09-27T03:04:59.345Z,56.38
2023-09-27T03:07:25.831Z,56.68
2023-09-27T03:09:52.276Z,56.70
2023-09-27T03:12:18.723Z,56.74
2023-09-27T03:14:45.188Z,56.94
2023-09-27T03:17:11.687Z,56.83
2023-09-27T03:19:38.246Z,56.68
2023-09-27T03:22:04.716Z,56.73
2023-09-27T03:24:31.430Z,57.05
2023-09-27T03:26:58.736Z,56.59
2023-09-27T03:29:25.214Z,56.37
2023-09-27T03:31:51.676Z,56.42
2023-09-27T03:34:18.251Z,56.36
2023-09-27T03:36:45.487Z,56.85
2023-09-27T03:39:12.427Z,56.70
2023-09-27T03:41:40.271Z,56.56
2023-09-27T03:44:06.856Z,56.59
2023-09-27T03:46:33.321Z,56.61
2023-09-27T03:48:59.764Z,56.37
2023-09-27T03:51:26.465Z,56.49
2023-09-27T03:53:52.984Z,56.70
2023-09-27T03:56:19.548Z,56.75
2023-09-27T03:58:46.105Z,56.88
2023-09-27T04:01:13.417Z,57.05
2023-09-27T04:03:40.073Z,56.91
2023-09-27T04:06:06.586Z,56.82
2023-09-27T04:08:33.434Z,56.31
2023-09-27T04:11:02.919Z,56.58
2023-09-27T04:13:29.463Z,56.22
2023-09-27T04:15:55.968Z,56.50
2023-09-27T04:18:22.501Z,56.39
2023-09-27T04:20:49.019Z,56.62
2023-09-27T04:23:15.625Z,56.58
2023-09-27T04:25:42.812Z,56.60
2023-09-27T04:28:10.940Z,56.50
2023-09-27T04:30:38.303Z,56.44
2023-09-27T04:33:04.876Z,56.84
2023-09-27T04:35:31.473Z,57.27
2023-09-27T04:37:58.145Z,57.02
2023-09-27T04:40:24.679Z,56.87
2023-09-27T04:42:51.145Z,56.84
2023-09-27T04:45:17.624Z,56.83
2023-09-27T04:47:45.978Z,56.53
2023-09-27T04:50:16.746Z,57.28
2023-09-27T04:52:43.744Z,57.00
2023-09-27T04:55:10.326Z,57.19
2023-09-27T04:57:36.926Z,57.32
2023-09-27T05:00:05.204Z,57.36
2023-09-27T05:02:31.890Z,57.13
2023-09-27T05:04:58.588Z,57.27
2023-09-27T05:07:25.588Z,57.68
2023-09-27T05:09:52.134Z,57.25
2023-09-27T05:12:18.618Z,57.45
2023-09-27T05:14:45.134Z,58.28
2023-09-27T05:17:11.756Z,57.86
2023-09-27T05:19:38.278Z,57.61
2023-09-27T05:22:04.971Z,58.16
2023-09-27T05:24:34.020Z,58.27
2023-09-27T05:27:04.443Z,58.82
2023-09-27T05:29:30.973Z,59.09
2023-09-27T05:31:57.740Z,58.59
2023-09-27T05:34:24.689Z,58.80
2023-09-27T05:36:51.523Z,58.46
2023-09-27T05:39:18.139Z,58.60
2023-09-27T05:41:44.644Z,58.49
2023-09-27T05:44:11.946Z,58.22
2023-09-27T05:46:40.687Z,57.97
2023-09-27T05:49:10.450Z,57.79
2023-09-27T05:51:37.240Z,57.46
2023-09-27T05:54:03.916Z,57.29
2023-09-27T05:56:30.435Z,57.61
2023-09-27T05:59:00.503Z,57.46
2023-09-27T06:01:27.189Z,58.27
2023-09-27T06:03:53.913Z,58.64
2023-09-27T06:06:20.454Z,58.17
2023-09-27T06:08:46.919Z,58.15
2023-09-27T06:11:13.465Z,58.59
2023-09-27T06:13:40.079Z,58.43
2023-09-27T06:16:13.239Z,58.58
2023-09-27T06:18:39.774Z,59.06
2023-09-27T06:21:06.268Z,58.71
2023-09-27T06:23:32.753Z,58.46
2023-09-27T06:25:59.313Z,58.78
2023-09-27T06:28:25.869Z,58.69
2023-09-27T06:30:52.285Z,58.45
2023-09-27T06:33:18.816Z,58.23
2023-09-27T06:35:45.326Z,58.15
2023-09-27T06:38:11.870Z,58.65
2023-09-27T06:40:38.355Z,59.06
2023-09-27T06:43:06.245Z,58.79
2023-09-27T06:45:33.554Z,58.53
2023-09-27T06:48:00.112Z,59.13
2023-09-27T06:50:26.962Z,59.66
2023-09-27T06:52:59.915Z,58.88
2023-09-27T06:55:33.744Z,59.70
2023-09-27T06:58:00.218Z,59.15
2023-09-27T07:00:26.690Z,59.29
2023-09-27T07:02:53.632Z,58.91
2023-09-27T07:05:22.797Z,58.61
2023-09-27T07:07:52.259Z,59.07
2023-09-27T07:10:18.835Z,59.26
2023-09-27T07:12:45.368Z,58.93
2023-09-27T07:15:14.905Z,59.56
2023-09-27T07:17:42.184Z,59.99
2023-09-27T07:20:30.363Z,59.59
2023-09-27T07:22:57.587Z,59.91
2023-09-27T07:25:29.707Z,60.23
2023-09-27T07:27:57.156Z,59.86
2023-09-27T07:30:26.991Z,60.18
2023-09-27T07:32:57.895Z,59.62
2023-09-27T07:35:25.956Z,59.52
2023-09-27T07:37:52.439Z,59.94
2023-09-27T07:40:18.899Z,59.37
2023-09-27T07:42:46.106Z,59.57
2023-09-27T07:45:22.752Z,59.12
2023-09-27T07:47:50.420Z,59.11
2023-09-27T07:50:17.174Z,58.49
2023-09-27T07:52:43.774Z,58.23
2023-09-27T07:55:11.922Z,57.92
2023-09-27T07:57:39.009Z,57.75
2023-09-27T08:00:11.533Z,57.88
2023-09-27T08:02:39.433Z,58.51
2023-09-27T08:05:10.848Z,58.25
2023-09-27T08:07:40.578Z,58.28
2023-09-27T08:10:21.245Z,57.72
2023-09-27T08:12:48.904Z,57.66
2023-09-27T08:15:15.869Z,57.47
2023-09-27T08:17:43.372Z,58.25
2023-09-27T08:20:13.350Z,57.97
2023-09-27T08:22:40.919Z,57.88
2023-09-27T08:25:20.245Z,58.48
2023-09-27T08:27:51.534Z,57.87
2023-09-27T08:30:18.346Z,57.87
2023-09-27T08:32:45.175Z,57.78
2023-09-27T08:35:12.178Z,57.73
2023-09-27T08:37:38.822Z,57.77
2023-09-27T08:40:14.912Z,57.53
2023-09-27T08:42:42.327Z,58.26
2023-09-27T08:45:12.204Z,58.45
2023-09-27T08:47:40.947Z,58.54
2023-09-27T08:50:07.635Z,58.69
2023-09-27T08:52:34.736Z,58.63
2023-09-27T08:55:01.209Z,58.48
2023-09-27T08:57:29.115Z,58.65
2023-09-27T08:59:56.526Z,58.82
2023-09-27T09:02:25.345Z,58.61
2023-09-27T09:04:52.226Z,58.65
2023-09-27T09:07:19.542Z,58.79
2023-09-27T09:09:47.343Z,58.65
2023-09-27T09:12:13.943Z,58.40
2023-09-27T09:14:50.917Z,58.60
2023-09-27T09:17:21.133Z,58.66
2023-09-27T09:20:16.189Z,59.23
2023-09-27T09:22:43.994Z,58.73
2023-09-27T09:25:10.492Z,59.27
2023-09-27T09:27:37.073Z,59.19
2023-09-27T09:30:07.734Z,59.12
2023-09-27T09:32:34.674Z,59.28
2023-09-27T09:35:01.529Z,59.35
2023-09-27T09:37:29.696Z,59.63
2023-09-27T09:40:14.372Z,59.61
2023-09-27T09:42:40.890Z,59.37
2023-09-27T09:45:08.139Z,59.48
2023-09-27T09:47:38.168Z,59.74
2023-09-27T09:50:09.945Z,59.75
2023-09-27T09:52:39.462Z,59.99
2023-09-27T09:55:21.289Z,59.86
2023-09-27T09:58:03.601Z,59.93
2023-09-27T10:00:31.354Z,59.70
2023-09-27T10:03:05.128Z,59.68
2023-09-27T10:05:37.634Z,60.07
2023-09-27T10:08:05.878Z,59.97
2023-09-27T10:10:32.638Z,60.34
2023-09-27T10:12:59.530Z,60.36
2023-09-27T10:15:27.013Z,59.95
2023-09-27T10:17:53.671Z,60.46
2023-09-27T10:20:23.641Z,60.32
2023-09-27T10:22:50.986Z,60.29
2023-09-27T10:25:35.764Z,60.25
2023-09-27T10:28:16.465Z,60.25
2023-09-27T10:30:42.969Z,60.19
2023-09-27T10:33:19.654Z,60.65
2023-09-27T10:36:01.988Z,60.61
2023-09-27T10:38:43.537Z,60.65
2023-09-27T10:41:10.654Z,60.91
2023-09-27T10:43:37.485Z,61.08
2023-09-27T10:46:05.631Z,61.19
2023-09-27T10:48:32.672Z,61.10
2023-09-27T10:50:59.728Z,60.86
2023-09-27T10:53:26.608Z,61.06
2023-09-27T10:55:53.390Z,61.05
2023-09-27T10:58:20.264Z,60.50
2023-09-27T11:00:54.572Z,60.73
2023-09-27T11:03:21.475Z,60.53
2023-09-27T11:05:48.898Z,60.68
2023-09-27T11:08:23.113Z,61.09
2023-09-27T11:10:50.303Z,61.01
2023-09-27T11:13:18.843Z,61.12
2023-09-27T11:15:45.718Z,61.25
2023-09-27T11:18:12.461Z,61.52
2023-09-27T11:20:42.235Z,61.16
2023-09-27T11:23:08.861Z,61.05
2023-09-27T11:25:36.425Z,60.71
2023-09-27T11:28:03.498Z,61.12
2023-09-27T11:30:34.455Z,61.06
2023-09-27T11:33:02.822Z,60.99
2023-09-27T11:35:29.497Z,61.07
2023-09-27T11:38:06.102Z,61.10
2023-09-27T11:40:36.323Z,60.75
2023-09-27T11:43:03.119Z,60.32
2023-09-27T11:45:31.185Z,60.35
2023-09-27T11:47:57.818Z,60.79
2023-09-27T11:50:24.365Z,60.48
2023-09-27T11:52:50.889Z,60.05
2023-09-27T11:55:18.159Z,61.13
2023-09-27T11:57:44.619Z,60.98
2023-09-27T12:00:16.612Z,60.63
2023-09-27T12:02:55.839Z,60.27
2023-09-27T12:05:24.181Z,60.61
2023-09-27T12:07:51.155Z,60.37
2023-09-27T12:10:17.733Z,60.26
2023-09-27T12:12:44.327Z,60.29
2023-09-27T12:15:11.541Z,60.32
2023-09-27T12:17:39.115Z,59.87
2023-09-27T12:20:07.676Z,59.92
2023-09-27T12:22:35.885Z,60.02
2023-09-27T12:25:02.354Z,59.95
2023-09-27T12:27:29.024Z,60.10
2023-09-27T12:29:55.629Z,60.03
2023-09-27T12:32:22.143Z,59.24
2023-09-27T12:34:49.392Z,58.78
2023-09-27T12:37:15.855Z,58.71
2023-09-27T12:39:42.281Z,57.84
2023-09-27T12:42:08.733Z,57.98
2023-09-27T12:44:35.351Z,57.79
2023-09-27T12:47:02.755Z,57.82
2023-09-27T12:49:29.310Z,57.69
2023-09-27T12:51:55.814Z,57.60
2023-09-27T12:54:23.905Z,57.44
2023-09-27T12:56:50.592Z,57.54
2023-09-27T12:59:17.134Z,57.49
2023-09-27T13:01:43.730Z,57.27
2023-09-27T13:04:10.762Z,57.07
2023-09-27T13:06:37.603Z,57.10
2023-09-27T13:09:04.322Z,56.96
2023-09-27T13:11:30.898Z,56.18
2023-09-27T13:13:57.419Z,56.18
2023-09-27T13:16:24.960Z,56.16
2023-09-27T13:18:54.214Z,55.82
2023-09-27T13:21:21.531Z,55.50
2023-09-27T13:23:48.048Z,55.54
2023-09-27T13:26:14.725Z,54.75
2023-09-27T13:28:41.176Z,55.07
2023-09-27T13:31:08.368Z,55.08
2023-09-27T13:33:35.725Z,54.95
2023-09-27T13:36:02.416Z,54.87
2023-09-27T13:38:29.182Z,54.88
2023-09-27T13:40:55.927Z,54.88
2023-09-27T13:43:22.415Z,55.07
2023-09-27T13:45:48.926Z,54.92
2023-09-27T13:48:15.646Z,54.83
2023-09-27T13:50:42.233Z,54.67
2023-09-27T13:53:08.798Z,54.98
2023-09-27T13:55:35.318Z,54.81
2023-09-27T13:58:01.757Z,54.54
2023-09-27T14:00:29.032Z,54.03
2023-09-27T14:02:56.124Z,54.06
2023-09-27T14:05:22.777Z,53.81
2023-09-27T14:07:51.144Z,53.93
2023-09-27T14:10:18.302Z,53.48
2023-09-27T14:12:44.744Z,53.33
2023-09-27T14:15:13.032Z,53.45
2023-09-27T14:17:41.232Z,53.31
2023-09-27T14:20:08.357Z,53.69
2023-09-27T14:22:35.560Z,53.49
2023-09-27T14:25:02.223Z,53.35
2023-09-27T14:27:29.489Z,53.52
2023-09-27T14:29:55.989Z,53.70
2023-09-27T14:32:23.616Z,53.71
2023-09-27T14:37:20.316Z,53.67
2023-09-27T14:39:46.777Z,53.57
2023-09-27T14:42:13.681Z,53.55
2023-09-27T14:44:40.308Z,53.82
2023-09-27T14:47:06.822Z,53.57
2023-09-27T14:49:33.317Z,53.69
2023-09-27T14:51:59.910Z,53.87
2023-09-27T14:54:26.402Z,53.79
2023-09-27T14:56:52.995Z,54.13
2023-09-27T14:59:19.550Z,53.44
2023-09-27T15:01:46.093Z,53.07
2023-09-27T15:04:14.222Z,53.52
2023-09-27T15:06:41.095Z,53.23
2023-09-27T15:09:07.580Z,53.11
2023-09-27T15:11:34.209Z,53.45
2023-09-27T15:14:00.709Z,53.63
2023-09-27T15:16:27.186Z,53.46
2023-09-27T15:18:53.802Z,53.67
2023-09-27T15:21:20.345Z,53.68
2023-09-27T15:23:46.798Z,53.67
2023-09-27T15:26:13.420Z,53.57
2023-09-27T15:28:39.965Z,53.87
2023-09-27T15:31:08.525Z,53.76
2023-09-27T15:33:34.964Z,53.81
2023-09-27T15:36:01.404Z,53.91
2023-09-27T15:38:28.128Z,53.97
2023-09-27T15:40:54.946Z,54.21
2023-09-27T15:43:22.055Z,53.93
2023-09-27T15:46:06.840Z,54.36
2023-09-27T15:48:36.925Z,54.54
2023-09-27T15:51:07.598Z,54.43
2023-09-27T15:53:34.816Z,54.64
2023-09-27T15:56:02.694Z,54.79
2023-09-27T15:58:29.444Z,54.65
2023-09-27T16:00:56.008Z,54.28
2023-09-27T16:03:22.625Z,54.46
2023-09-27T16:05:50.088Z,54.78
2023-09-27T16:08:24.319Z,54.89
2023-09-27T16:10:55.081Z,54.77
2023-09-27T16:13:23.388Z,54.97
2023-09-27T16:15:51.415Z,55.32
2023-09-27T16:18:19.083Z,54.99
2023-09-27T16:20:46.270Z,55.24
2023-09-27T16:23:13.541Z,55.12
2023-09-27T16:25:40.104Z,55.16
2023-09-27T16:28:07.958Z,55.13
2023-09-27T16:30:36.103Z,55.09
2023-09-27T16:33:05.656Z,54.71
2023-09-27T16:35:36.932Z,55.22
2023-09-27T16:38:03.711Z,55.08
2023-09-27T16:40:30.351Z,54.78
2023-09-27T16:42:56.859Z,55.00
2023-09-27T16:45:23.720Z,55.01
2023-09-27T16:47:50.253Z,55.16
2023-09-27T16:50:16.749Z,55.23
2023-09-27T16:52:43.285Z,55.34
2023-09-27T16:55:09.909Z,55.27
2023-09-27T16:57:37.310Z,55.34
2023-09-27T17:00:07.098Z,55.42
2023-09-27T17:02:34.038Z,55.34
2023-09-27T17:05:00.881Z,55.35
2023-09-27T17:07:33.897Z,55.34
2023-09-27T17:10:01.221Z,55.72
2023-09-27T17:12:27.829Z,55.72
2023-09-27T17:14:54.357Z,55.77
2023-09-27T17:17:20.873Z,55.87
2023-09-27T17:19:47.807Z,55.87
2023-09-27T17:22:14.288Z,55.75
2023-09-27T17:24:40.805Z,55.93
2023-09-27T17:27:07.700Z,56.01
2023-09-27T17:29:35.073Z,56.19
2023-09-27T17:32:01.663Z,56.04
2023-09-27T17:34:28.351Z,56.21
2023-09-27T17:36:54.858Z,56.21
2023-09-27T17:39:21.466Z,56.27
2023-09-27T17:41:48.033Z,56.18
2023-09-27T17:44:14.576Z,56.40
2023-09-27T17:46:41.117Z,56.38
2023-09-27T17:49:07.713Z,56.37
2023-09-27T17:51:34.287Z,56.38
2023-09-27T17:54:00.763Z,56.14
2023-09-27T17:56:30.456Z,56.50
2023-09-27T17:58:57.168Z,56.39
2023-09-27T18:01:26.962Z,56.41
2023-09-27T18:03:53.892Z,56.54
2023-09-27T18:06:20.705Z,56.71
2023-09-27T18:08:47.175Z,56.46
2023-09-27T18:11:15.055Z,56.71
2023-09-27T18:13:42.253Z,56.58
2023-09-27T18:16:16.232Z,56.58
2023-09-27T18:18:44.093Z,56.69
2023-09-27T18:21:14.338Z,56.52
2023-09-27T18:23:41.460Z,56.46
2023-09-27T18:26:08.270Z,56.83
2023-09-27T18:28:35.474Z,56.60
2023-09-27T18:31:02.031Z,57.06
2023-09-27T18:33:28.750Z,56.60
2023-09-27T18:35:55.204Z,56.58
2023-09-27T18:38:21.749Z,56.87
2023-09-27T18:40:48.375Z,56.96
2023-09-27T18:43:19.388Z,56.95
2023-09-27T18:45:46.825Z,56.97
2023-09-27T18:48:19.317Z,56.97
2023-09-27T18:50:47.015Z,57.29
2023-09-27T18:53:13.615Z,57.34
2023-09-27T18:55:40.125Z,57.11
2023-09-27T18:58:07.284Z,57.22
2023-09-27T19:00:33.768Z,57.34
2023-09-27T19:03:02.671Z,57.19
2023-09-27T19:05:29.379Z,57.78
2023-09-27T19:07:55.917Z,57.29
2023-09-27T19:10:22.526Z,57.29
2023-09-27T19:12:49.009Z,57.63
2023-09-27T19:15:15.438Z,57.82
2023-09-27T19:17:42.559Z,57.51
2023-09-27T19:20:10.041Z,57.51
2023-09-27T19:22:36.837Z,57.49
2023-09-27T19:25:04.339Z,57.47
2023-09-27T19:27:31.176Z,57.45
2023-09-27T19:29:57.650Z,57.95
2023-09-27T19:32:24.305Z,57.79
2023-09-27T19:34:51.021Z,57.68
2023-09-27T19:37:20.508Z,57.88
2023-09-27T19:39:48.399Z,57.82
2023-09-27T19:42:15.234Z,57.89
2023-09-27T19:44:42.328Z,58.02
2023-09-27T19:47:09.238Z,57.93
2023-09-27T19:49:36.006Z,58.02
2023-09-27T19:52:03.382Z,57.52
2023-09-27T19:54:29.899Z,57.68
2023-09-27T19:56:56.414Z,57.89
2023-09-27T19:59:23.172Z,57.67
2023-09-27T20:01:49.806Z,57.91
2023-09-27T20:04:16.384Z,57.82
2023-09-27T20:06:43.181Z,57.97
2023-09-27T20:09:09.852Z,57.73
2023-09-27T20:11:38.713Z,57.90
2023-09-27T20:14:05.631Z,58.08
2023-09-27T20:16:33.788Z,58.12
2023-09-27T20:19:01.135Z,57.79
2023-09-27T20:21:27.774Z,58.26
2023-09-27T20:23:54.469Z,57.88
2023-09-27T20:26:21.111Z,58.14
2023-09-27T20:28:48.244Z,57.90
2023-09-27T20:31:15.900Z,58.03
2023-09-27T20:33:42.548Z,58.07
2023-09-27T20:36:12.855Z,58.04
2023-09-27T20:38:39.931Z,58.13
2023-09-27T20:41:06.645Z,57.87
2023-09-27T20:43:33.127Z,58.00
2023-09-27T20:45:59.637Z,57.96
2023-09-27T20:48:26.663Z,58.06
2023-09-27T20:50:58.084Z,58.01
2023-09-27T20:53:25.473Z,57.66
2023-09-27T20:55:54.099Z,57.63
2023-09-27T20:58:20.844Z,57.96
2023-09-27T21:00:47.524Z,58.01
2023-09-27T21:03:14.112Z,58.03
2023-09-27T21:05:41.063Z,57.85
2023-09-27T21:08:07.738Z,57.80
2023-09-27T21:10:34.324Z,58.04
2023-09-27T21:13:00.824Z,58.13
2023-09-27T21:15:27.415Z,58.18
2023-09-27T21:17:54.077Z,57.80
2023-09-27T21:20:20.847Z,58.26
2023-09-27T21:22:48.236Z,58.19
2023-09-27T21:25:15.903Z,58.52
2023-09-27T21:27:42.814Z,58.23
2023-09-27T21:30:09.575Z,58.54
2023-09-27T21:32:36.464Z,58.53
2023-09-27T21:35:04.471Z,58.40
2023-09-27T21:37:31.061Z,58.22
2023-09-27T21:39:57.560Z,58.47
2023-09-27T21:42:24.157Z,58.69
2023-09-27T21:44:50.643Z,58.56
2023-09-27T21:47:17.135Z,58.53
2023-09-27T21:49:43.629Z,58.45
2023-09-27T21:52:11.188Z,58.38
2023-09-27T21:54:37.670Z,58.03
2023-09-27T21:57:04.155Z,58.35
2023-09-27T21:59:30.632Z,58.20
2023-09-27T22:01:57.131Z,58.04
2023-09-27T22:04:23.818Z,58.42
2023-09-27T22:06:50.307Z,58.17
2023-09-27T22:09:16.860Z,58.28
2023-09-27T22:11:45.324Z,58.18
2023-09-27T22:14:11.872Z,58.02
2023-09-27T22:16:38.497Z,58.35
2023-09-27T22:19:12.236Z,58.16
2023-09-27T22:21:42.805Z,57.93
2023-09-27T22:24:13.143Z,58.00
2023-09-27T22:26:47.087Z,57.91
2023-09-27T22:29:15.400Z,57.90
2023-09-27T22:31:43.721Z,57.87
2023-09-27T22:34:24.159Z,58.16
2023-09-27T22:36:54.607Z,57.88
2023-09-27T22:39:23.392Z,58.06
2023-09-27T22:41:53.123Z,57.82
2023-09-27T22:44:20.729Z,57.67
2023-09-27T22:46:51.565Z,57.89
2023-09-27T22:49:24.534Z,57.47
2023-09-27T22:51:51.301Z,57.70
2023-09-27T22:54:18.921Z,57.33
2023-09-27T22:56:46.085Z,57.44
2023-09-27T22:59:13.319Z,57.46
2023-09-27T23:01:40.926Z,57.54
2023-09-27T23:04:11.569Z,57.45
2023-09-27T23:06:46.068Z,57.49
2023-09-27T23:09:21.225Z,57.16
2023-09-27T23:11:49.870Z,57.36
2023-09-27T23:14:22.782Z,57.29
2023-09-27T23:16:50.648Z,57.44
2023-09-27T23:19:18.811Z,57.36
2023-09-27T23:21:46.723Z,56.93
2023-09-27T23:24:22.083Z,57.24
2023-09-27T23:27:00.538Z,57.24
2023-09-27T23:29:30.315Z,56.90
2023-09-27T23:32:15.230Z,57.17
2023-09-27T23:34:42.183Z,56.87
2023-09-27T23:37:16.582Z,57.18
2023-09-27T23:39:44.040Z,57.17
2023-09-27T23:42:22.999Z,57.17
2023-09-27T23:44:54.667Z,57.05
2023-09-27T23:47:23.607Z,56.95
2023-09-27T23:50:01.898Z,57.11
2023-09-27T23:52:29.630Z,56.96
2023-09-27T23:54:57.668Z,56.95
2023-09-27T23:57:28.910Z,56.81
